Airfield :
LOGIN :

Register | Disclaimer

   EN    FR    IT 

 










Legend :    VFR   Marginal VFR   IFR   Intensive IFR   Very Intensive IFR
Visi :
Ceiling :
>= 8 km
>= 3000ft
5 to 8 km
1000 to 3000 ft
1500m to 5 km
500 to 1000 ft
800 to 1500m
200 to 500 ft
< 800m
< 200 ft
Symbols :   Thunderstorms  Fog  Heavy snow  Heavy precipitations  Wind > 20 kt
SIGMETs :     Misc.  Thunderstorms  Icing  Turbulence  Mountain Waves  Volcanic Ashes







- Airport Elevation : 485 ft
- IATA code : QSA


LELL - Sabadell

CURRENT METAR :
  • 190430Z AUTO 05009G19KT 360V110 9999 NCD 15/07 Q1019

EXPIRED METARs :
  • 190400Z AUTO 05010KT 9999 NCD 15/07 Q1019
  • 190330Z AUTO 05009KT 350V120 9999 NCD 15/07 Q1019
  • 190300Z AUTO 06008KT 010V110 9999 NCD 15/08 Q1019
  • 190230Z AUTO 06007KT 350V110 9999 NCD 15/08 Q1019
  • 190200Z AUTO 06008KT 360V140 9999 NCD 15/08 Q1019

TAF TAF LELL
Valid from the 19 at 03:00 until the 20 at 03:00 UTC


190200Z 1903/2003 07012KT 9999 FEW020 TX22/1913Z TN13/1906Z
TEMPO 1903/1906 06015G25KT
TEMPO 1906/1922 07020G33KT
No reported NOTAMs for that airfield.



MET'MAP, your aeronautical weather chart ! - Copyright ORBIFLY December 2007 - Disclaimer

ORBIFLY MET'MAP TEAM :

Programming & Development : Alexandra Zaïnal
Concept & Development : Baudouin d'Aumeries
Co-Development & Prog : Marc-Olivier Méhu
Technical & hardware support : Manuel Goepfert

Contact : metmap@orbifly.com




SOURCES & CREDITS :

   NOAA